Aviation Digital Data Service (ADDS)

Output produced by METARs form (0548 UTC 30 March 2015)
found at http://aviationweather.gov/adds/metars/
 
KINT 300521Z 3006/3106 21008KT P6SM SCT150 WS018/24045KT 
     FM301200 23007KT P6SM -RA OVC030 WS018/24038KT 
     FM301500 29008KT P6SM OVC020 
     FM301700 28010G18KT P6SM SCT050 
     FM310000 32004KT P6SM SKC